Time;durP1;ratioP1;P1;durP2;ratioP2;P2;SDS_P1;SDS_P2;PMS_P1;PMS_P2;Temp;Humidity;BMP_temperature;BMP_pressure;BME280_temperature;BME280_humidity;BME280_pressure;Samples;Min_cycle;Max_cycle;Signal;HPM_P1;HPM_P2
2023/09/11 00:01:32;;;;;;;22.83;17.75;;;;;;;;;;4947889;28;20284;-77
2023/09/11 00:03:58;;;;;;;21.33;16.90;;;;;;;;;;4961678;28;20031;-77
2023/09/11 00:06:25;;;;;;;22.33;17.75;;;;;;;;;;4958926;28;20085;-77
2023/09/11 00:08:50;;;;;;;25.38;18.40;;;;;;;;;;4953868;28;20023;-77
2023/09/11 00:11:16;;;;;;;26.17;17.92;;;;;;;;;;4963387;28;20035;-77
2023/09/11 00:13:41;;;;;;;31.15;20.40;;;;;;;;;;4959280;28;20043;-77
2023/09/11 00:16:06;;;;;;;38.88;25.85;;;;;;;;;;4958742;28;20104;-77
2023/09/11 00:18:32;;;;;;;45.80;25.52;;;;;;;;;;4958540;28;20035;-77
2023/09/11 00:20:57;;;;;;;31.65;22.35;;;;;;;;;;4959132;28;20382;-77
2023/09/11 00:23:23;;;;;;;30.13;22.20;;;;;;;;;;4939863;28;20051;-77
2023/09/11 00:25:48;;;;;;;35.15;22.48;;;;;;;;;;4954092;28;20044;-77
2023/09/11 00:28:14;;;;;;;31.73;20.45;;;;;;;;;;4954436;28;20036;-77
2023/09/11 00:30:39;;;;;;;28.20;19.80;;;;;;;;;;4959662;28;20101;-77
2023/09/11 00:33:05;;;;;;;25.55;19.40;;;;;;;;;;4930913;29;20065;-77
2023/09/11 00:35:30;;;;;;;26.38;19.17;;;;;;;;;;4957781;28;20027;-77
2023/09/11 00:37:55;;;;;;;24.65;19.02;;;;;;;;;;4955448;28;20046;-78
2023/09/11 00:40:21;;;;;;;26.42;19.35;;;;;;;;;;4956807;28;20085;-78
2023/09/11 00:42:46;;;;;;;27.58;18.08;;;;;;;;;;4938397;28;20122;-78
2023/09/11 00:45:12;;;;;;;25.55;19.42;;;;;;;;;;4941383;28;20023;-79
2023/09/11 00:47:39;;;;;;;33.67;19.95;;;;;;;;;;4960556;28;20409;-78
2023/09/11 00:50:06;;;;;;;32.30;20.85;;;;;;;;;;4943273;28;20035;-78
2023/09/11 00:52:32;;;;;;;28.67;17.98;;;;;;;;;;4944455;28;20115;-77
2023/09/11 00:54:58;;;;;;;18.02;14.05;;;;;;;;;;4962327;28;20500;-77
2023/09/11 00:57:25;;;;;;;15.10;12.15;;;;;;;;;;4959508;28;20383;-78
2023/09/11 00:59:50;;;;;;;18.65;13.02;;;;;;;;;;4958762;28;20035;-78
2023/09/11 01:02:16;;;;;;;16.77;12.23;;;;;;;;;;4952095;28;20036;-78
2023/09/11 01:04:43;;;;;;;18.83;13.32;;;;;;;;;;4966109;28;20038;-77
2023/09/11 01:07:08;;;;;;;15.25;12.95;;;;;;;;;;4963401;28;20395;-78
2023/09/11 01:09:34;;;;;;;18.45;13.35;;;;;;;;;;4944246;28;20023;-77
2023/09/11 01:11:59;;;;;;;18.98;14.00;;;;;;;;;;4946540;28;20562;-77
2023/09/11 01:14:26;;;;;;;16.90;13.93;;;;;;;;;;4963091;28;20509;-77
2023/09/11 01:17:02;;;;;;;17.83;14.30;;;;;;;;;;4942888;28;20455;-79
2023/09/11 01:20:01;;;;;;;20.35;14.10;;;;;;;;;;4956688;28;20148;-77
2023/09/11 01:22:46;;;;;;;18.77;13.30;;;;;;;;;;4952601;28;20040;-77
2023/09/11 01:25:53;;;;;;;16.27;12.95;;;;;;;;;;4953112;28;20406;-78
2023/09/11 01:28:50;;;;;;;17.92;12.75;;;;;;;;;;4942451;28;20043;-77
2023/09/11 01:31:17;;;;;;;19.45;13.82;;;;;;;;;;4960351;28;20027;-77
2023/09/11 01:33:43;;;;;;;19.45;14.80;;;;;;;;;;4958535;28;20077;-77
2023/09/11 01:36:08;;;;;;;19.75;14.27;;;;;;;;;;4961282;28;20030;-78
2023/09/11 01:38:33;;;;;;;27.10;18.92;;;;;;;;;;4941166;28;20399;-78
2023/09/11 01:41:01;;;;;;;34.45;21.23;;;;;;;;;;4960351;28;20479;-77
2023/09/11 01:43:31;;;;;;;41.40;25.17;;;;;;;;;;4964508;28;20455;-77
2023/09/11 01:45:58;;;;;;;37.72;24.95;;;;;;;;;;4959435;28;20058;-78
2023/09/11 01:48:25;;;;;;;32.95;24.48;;;;;;;;;;4957559;28;20031;-78
2023/09/11 01:50:50;;;;;;;31.33;22.67;;;;;;;;;;4951567;28;20413;-78
2023/09/11 01:53:16;;;;;;;28.27;20.02;;;;;;;;;;4952368;28;20031;-78
2023/09/11 01:55:42;;;;;;;25.30;18.02;;;;;;;;;;4956748;28;20035;-78
2023/09/11 01:58:08;;;;;;;27.17;20.27;;;;;;;;;;4961204;28;20066;-78
2023/09/11 02:00:34;;;;;;;27.20;19.58;;;;;;;;;;4960631;28;20100;-78
2023/09/11 02:02:59;;;;;;;21.98;15.45;;;;;;;;;;4954825;28;20087;-78
2023/09/11 02:05:24;;;;;;;21.05;15.65;;;;;;;;;;4944201;28;20114;-78
2023/09/11 02:07:50;;;;;;;17.73;13.95;;;;;;;;;;4944234;28;20035;-78
2023/09/11 02:10:16;;;;;;;17.55;13.82;;;;;;;;;;4958773;28;20039;-78
2023/09/11 02:12:41;;;;;;;21.48;14.88;;;;;;;;;;4954799;28;20035;-78
2023/09/11 02:15:07;;;;;;;19.48;15.25;;;;;;;;;;4960860;28;20029;-78
2023/09/11 02:17:32;;;;;;;27.20;18.83;;;;;;;;;;4955209;28;20027;-78
2023/09/11 02:19:58;;;;;;;28.80;19.35;;;;;;;;;;4956894;28;20043;-78
2023/09/11 02:22:23;;;;;;;26.23;19.73;;;;;;;;;;4961540;28;20386;-77
2023/09/11 02:24:48;;;;;;;33.47;21.90;;;;;;;;;;4948074;28;20233;-78
2023/09/11 02:27:13;;;;;;;27.08;20.83;;;;;;;;;;4947965;28;20026;-78
2023/09/11 02:29:39;;;;;;;31.33;21.42;;;;;;;;;;4949550;28;20031;-77
2023/09/11 02:32:04;;;;;;;31.73;21.48;;;;;;;;;;4932802;28;20055;-77
2023/09/11 02:34:30;;;;;;;30.23;22.50;;;;;;;;;;4956336;28;20678;-77
2023/09/11 02:36:55;;;;;;;29.95;20.77;;;;;;;;;;4949301;28;20146;-76
2023/09/11 02:39:21;;;;;;;28.77;20.38;;;;;;;;;;4944545;28;20507;-77
2023/09/11 02:41:46;;;;;;;26.73;19.08;;;;;;;;;;4949980;28;20027;-77
2023/09/11 02:44:11;;;;;;;27.48;19.95;;;;;;;;;;4957906;28;20075;-77
2023/09/11 02:46:36;;;;;;;26.48;19.52;;;;;;;;;;4935096;28;20245;-77
2023/09/11 02:49:02;;;;;;;32.40;20.50;;;;;;;;;;4947033;28;20043;-77
2023/09/11 02:51:28;;;;;;;38.92;23.10;;;;;;;;;;4955415;28;20030;-77
2023/09/11 02:53:54;;;;;;;30.88;22.15;;;;;;;;;;4940444;28;20038;-77
2023/09/11 02:56:20;;;;;;;48.63;23.80;;;;;;;;;;4948425;28;20059;-77
2023/09/11 02:58:45;;;;;;;37.47;23.40;;;;;;;;;;4946219;28;20100;-77
2023/09/11 03:01:10;;;;;;;35.80;25.50;;;;;;;;;;4938046;28;20095;-77
2023/09/11 03:03:35;;;;;;;47.10;28.20;;;;;;;;;;4952232;28;20536;-77
2023/09/11 03:06:02;;;;;;;40.60;28.98;;;;;;;;;;4937508;28;20110;-76
2023/09/11 03:08:28;;;;;;;42.63;28.20;;;;;;;;;;4960368;28;20027;-78
2023/09/11 03:10:54;;;;;;;45.40;29.25;;;;;;;;;;4960472;28;20140;-76
2023/09/11 03:13:20;;;;;;;43.05;28.55;;;;;;;;;;4946808;28;20043;-77
2023/09/11 03:15:45;;;;;;;42.63;30.00;;;;;;;;;;4952832;28;20042;-77
2023/09/11 03:18:11;;;;;;;41.97;26.85;;;;;;;;;;4951520;28;20342;-77
2023/09/11 03:20:36;;;;;;;36.67;27.15;;;;;;;;;;4950181;28;20023;-77
2023/09/11 03:23:02;;;;;;;40.13;26.77;;;;;;;;;;4953206;28;20043;-76
2023/09/11 03:25:28;;;;;;;41.92;25.25;;;;;;;;;;4947251;28;20063;-75
2023/09/11 03:27:54;;;;;;;35.67;24.20;;;;;;;;;;4962163;28;20081;-75
2023/09/11 03:30:19;;;;;;;33.80;23.23;;;;;;;;;;4959903;28;20031;-77
2023/09/11 03:32:44;;;;;;;34.08;23.02;;;;;;;;;;4958098;28;20023;-78
2023/09/11 03:35:10;;;;;;;33.25;22.50;;;;;;;;;;4944234;28;20054;-79
2023/09/11 03:37:36;;;;;;;42.70;22.23;;;;;;;;;;4937710;28;20126;-79
2023/09/11 03:40:07;;;;;;;32.53;22.63;;;;;;;;;;4957194;28;20105;-79
2023/09/11 03:42:32;;;;;;;30.05;22.27;;;;;;;;;;4961429;28;20125;-80
2023/09/11 03:44:58;;;;;;;27.75;21.17;;;;;;;;;;4941440;28;20043;-80
2023/09/11 03:47:23;;;;;;;33.53;22.02;;;;;;;;;;4942567;28;20085;-80
2023/09/11 03:49:48;;;;;;;31.83;23.08;;;;;;;;;;4940902;28;20280;-79
2023/09/11 03:52:14;;;;;;;35.35;23.33;;;;;;;;;;4938983;28;20039;-78
2023/09/11 03:54:39;;;;;;;38.88;25.60;;;;;;;;;;4973990;28;20059;-79
2023/09/11 03:57:04;;;;;;;36.50;24.02;;;;;;;;;;4976089;28;20079;-80
2023/09/11 03:59:30;;;;;;;34.15;23.75;;;;;;;;;;4958505;28;20034;-81
2023/09/11 04:01:55;;;;;;;33.83;24.00;;;;;;;;;;4957439;28;20035;-81
2023/09/11 04:04:20;;;;;;;39.58;24.35;;;;;;;;;;4958148;28;20045;-80
2023/09/11 04:06:45;;;;;;;37.10;25.85;;;;;;;;;;4958715;28;20089;-78
2023/09/11 04:09:11;;;;;;;33.70;24.65;;;;;;;;;;4951854;28;20080;-78
2023/09/11 04:11:36;;;;;;;33.90;23.67;;;;;;;;;;4939325;28;20035;-79
2023/09/11 04:14:01;;;;;;;34.70;22.77;;;;;;;;;;4950715;28;20056;-76
2023/09/11 04:16:27;;;;;;;35.58;21.95;;;;;;;;;;4970678;28;20400;-76
2023/09/11 04:18:52;;;;;;;31.25;22.02;;;;;;;;;;4965693;28;20126;-76
2023/09/11 04:21:17;;;;;;;32.00;21.75;;;;;;;;;;4964653;28;20037;-77
2023/09/11 04:23:43;;;;;;;29.50;20.30;;;;;;;;;;4942875;29;20031;-76
2023/09/11 04:26:08;;;;;;;31.92;19.92;;;;;;;;;;4964019;28;20433;-77
2023/09/11 04:28:35;;;;;;;31.65;21.90;;;;;;;;;;4964018;28;20054;-76
2023/09/11 04:31:01;;;;;;;33.63;21.77;;;;;;;;;;4952301;28;20050;-77
2023/09/11 04:33:27;;;;;;;32.65;23.00;;;;;;;;;;4967947;28;20035;-76
2023/09/11 04:35:53;;;;;;;34.17;22.85;;;;;;;;;;4951846;28;20020;-78
2023/09/11 04:38:18;;;;;;;31.20;20.55;;;;;;;;;;4956358;28;20035;-76
2023/09/11 04:40:43;;;;;;;34.90;21.88;;;;;;;;;;4965226;28;20039;-77
2023/09/11 04:43:08;;;;;;;34.15;22.20;;;;;;;;;;4951261;28;20035;-77
2023/09/11 04:45:34;;;;;;;32.85;21.15;;;;;;;;;;4965632;28;20035;-78
2023/09/11 04:47:59;;;;;;;33.60;22.83;;;;;;;;;;4968412;28;20061;-78
2023/09/11 04:50:24;;;;;;;32.53;22.88;;;;;;;;;;4967345;28;20386;-76
2023/09/11 04:52:50;;;;;;;39.75;22.35;;;;;;;;;;4973188;28;20039;-77
2023/09/11 04:55:15;;;;;;;31.48;22.85;;;;;;;;;;4967331;28;20042;-78
2023/09/11 04:57:40;;;;;;;30.48;21.73;;;;;;;;;;4942540;28;20040;-78
2023/09/11 05:00:10;;;;;;;28.58;20.45;;;;;;;;;;4960565;28;20045;-77
2023/09/11 05:02:36;;;;;;;27.98;20.85;;;;;;;;;;4960745;28;20019;-77
2023/09/11 05:05:03;;;;;;;30.50;20.45;;;;;;;;;;4957121;28;20409;-77
2023/09/11 05:07:29;;;;;;;27.42;20.20;;;;;;;;;;4966706;28;20035;-78
2023/09/11 05:09:54;;;;;;;29.80;20.15;;;;;;;;;;4966998;28;20130;-77
2023/09/11 05:12:20;;;;;;;26.98;20.42;;;;;;;;;;4967456;28;20059;-76
2023/09/11 05:14:45;;;;;;;28.67;20.33;;;;;;;;;;4956797;28;20045;-77
2023/09/11 05:17:10;;;;;;;28.98;20.08;;;;;;;;;;4957305;28;20058;-77
2023/09/11 05:19:35;;;;;;;30.60;20.00;;;;;;;;;;4947384;28;20089;-77
2023/09/11 05:22:01;;;;;;;25.70;19.60;;;;;;;;;;4955170;28;20063;-77
2023/09/11 05:24:26;;;;;;;26.58;19.08;;;;;;;;;;4960102;28;20063;-76
2023/09/11 05:26:51;;;;;;;26.05;17.30;;;;;;;;;;4963767;28;20049;-77
2023/09/11 05:29:17;;;;;;;25.83;17.27;;;;;;;;;;4958519;28;20088;-75
2023/09/11 05:31:42;;;;;;;20.95;16.95;;;;;;;;;;4960677;28;20130;-77
2023/09/11 05:34:07;;;;;;;18.27;15.52;;;;;;;;;;4958768;28;20038;-77
2023/09/11 05:36:33;;;;;;;17.23;14.23;;;;;;;;;;4961501;28;20027;-79
2023/09/11 05:38:58;;;;;;;18.95;14.68;;;;;;;;;;4967218;28;20079;-77
2023/09/11 05:41:25;;;;;;;16.08;13.65;;;;;;;;;;4970425;28;20042;-77
2023/09/11 05:43:51;;;;;;;18.80;14.50;;;;;;;;;;4946622;28;20498;-78
2023/09/11 05:46:17;;;;;;;18.17;11.68;;;;;;;;;;4967830;28;20092;-79
2023/09/11 05:48:42;;;;;;;14.95;12.23;;;;;;;;;;4958059;28;20042;-77
2023/09/11 05:51:07;;;;;;;14.13;11.80;;;;;;;;;;4970493;28;20109;-76
2023/09/11 05:53:33;;;;;;;17.67;11.88;;;;;;;;;;4961117;28;20043;-78
2023/09/11 05:55:58;;;;;;;13.15;10.90;;;;;;;;;;4948478;28;20049;-77
2023/09/11 05:58:24;;;;;;;15.73;10.60;;;;;;;;;;4960869;28;20070;-77
2023/09/11 06:00:51;;;;;;;18.52;11.10;;;;;;;;;;4974953;28;20055;-79
2023/09/11 06:03:16;;;;;;;12.23;10.45;;;;;;;;;;4964878;28;20110;-78
2023/09/11 06:05:43;;;;;;;12.25;10.60;;;;;;;;;;5029631;28;20054;-78
2023/09/11 06:08:08;;;;;;;11.35;10.15;;;;;;;;;;4938632;28;20040;-79
2023/09/11 06:10:34;;;;;;;16.52;11.02;;;;;;;;;;4965211;28;20035;-79
2023/09/11 06:12:59;;;;;;;14.15;9.90;;;;;;;;;;4963933;28;20047;-79
2023/09/11 06:15:25;;;;;;;10.50;9.25;;;;;;;;;;4962053;28;20034;-77
2023/09/11 06:17:50;;;;;;;13.82;9.40;;;;;;;;;;4953997;28;20096;-79
2023/09/11 06:20:18;;;;;;;15.25;8.98;;;;;;;;;;4966647;28;20437;-77
2023/09/11 06:22:43;;;;;;;12.52;8.60;;;;;;;;;;4949745;28;20039;-79
2023/09/11 06:25:09;;;;;;;10.00;8.18;;;;;;;;;;4945269;28;20035;-79
2023/09/11 06:27:34;;;;;;;9.25;8.25;;;;;;;;;;4964779;28;20027;-78
2023/09/11 06:30:00;;;;;;;9.20;8.30;;;;;;;;;;4956593;28;20077;-78
2023/09/11 06:32:26;;;;;;;9.40;7.97;;;;;;;;;;4938370;28;20035;-78
2023/09/11 06:34:51;;;;;;;10.52;8.77;;;;;;;;;;4950556;28;20038;-78
2023/09/11 06:37:16;;;;;;;9.23;8.10;;;;;;;;;;4968126;28;20083;-79
2023/09/11 06:39:42;;;;;;;13.23;8.30;;;;;;;;;;4969646;28;20039;-77
2023/09/11 06:42:07;;;;;;;13.60;7.75;;;;;;;;;;4944555;28;20012;-79
2023/09/11 06:44:33;;;;;;;9.57;7.65;;;;;;;;;;4952553;28;20026;-77
2023/09/11 06:46:58;;;;;;;9.65;8.32;;;;;;;;;;4938843;28;20122;-77
2023/09/11 06:49:24;;;;;;;8.68;7.85;;;;;;;;;;4934717;28;20041;-79
2023/09/11 06:51:49;;;;;;;9.68;7.30;;;;;;;;;;4944206;28;20347;-77
2023/09/11 06:54:14;;;;;;;9.23;7.95;;;;;;;;;;4938248;28;20501;-76
2023/09/11 06:56:40;;;;;;;11.77;7.70;;;;;;;;;;4952332;28;20031;-77
2023/09/11 06:59:06;;;;;;;9.35;7.32;;;;;;;;;;4938090;28;20027;-79
2023/09/11 07:01:32;;;;;;;9.20;7.20;;;;;;;;;;4945632;28;20110;-76
2023/09/11 07:03:57;;;;;;;8.23;7.38;;;;;;;;;;4955712;28;20046;-76
2023/09/11 07:06:23;;;;;;;8.05;7.00;;;;;;;;;;4971998;28;20110;-79
2023/09/11 07:08:48;;;;;;;8.43;6.80;;;;;;;;;;4942170;28;20027;-79
2023/09/11 07:11:16;;;;;;;8.70;6.95;;;;;;;;;;4956614;28;20045;-77
2023/09/11 07:13:41;;;;;;;11.52;7.18;;;;;;;;;;4953053;28;20058;-79
2023/09/11 07:16:07;;;;;;;10.38;7.68;;;;;;;;;;4961654;28;20431;-76
2023/09/11 07:18:32;;;;;;;9.63;6.95;;;;;;;;;;4951411;28;20037;-76
2023/09/11 07:20:57;;;;;;;9.38;6.90;;;;;;;;;;4944960;28;20465;-78
2023/09/11 07:23:27;;;;;;;7.50;6.80;;;;;;;;;;4952100;28;20031;-77
2023/09/11 07:25:55;;;;;;;8.45;7.13;;;;;;;;;;4953814;28;20039;-78
2023/09/11 07:28:20;;;;;;;8.15;6.90;;;;;;;;;;4971304;28;20035;-78
2023/09/11 07:30:45;;;;;;;8.73;7.05;;;;;;;;;;4971904;28;20045;-77
2023/09/11 07:33:11;;;;;;;8.07;7.00;;;;;;;;;;4966594;28;20034;-77
2023/09/11 07:35:36;;;;;;;10.05;7.05;;;;;;;;;;4953212;28;20035;-78
2023/09/11 07:38:02;;;;;;;8.60;6.60;;;;;;;;;;4952712;28;20096;-78
2023/09/11 07:40:27;;;;;;;13.88;8.07;;;;;;;;;;4952898;28;20252;-78
2023/09/11 07:42:54;;;;;;;24.40;10.07;;;;;;;;;;4952564;28;20141;-78
2023/09/11 07:45:20;;;;;;;23.40;9.15;;;;;;;;;;4952312;28;20400;-76
2023/09/11 07:47:45;;;;;;;27.83;9.60;;;;;;;;;;4952992;28;20055;-78
2023/09/11 07:50:10;;;;;;;12.45;7.55;;;;;;;;;;4952371;28;20058;-77
2023/09/11 07:52:36;;;;;;;9.45;6.47;;;;;;;;;;4952196;28;20066;-76
2023/09/11 07:55:02;;;;;;;9.55;6.95;;;;;;;;;;4951213;28;20047;-79
2023/09/11 07:57:30;;;;;;;15.18;7.47;;;;;;;;;;4971556;28;20114;-78
2023/09/11 07:59:56;;;;;;;22.77;8.63;;;;;;;;;;4972727;28;20485;-78
2023/09/11 08:02:21;;;;;;;11.80;7.07;;;;;;;;;;4971896;28;20042;-78
2023/09/11 08:04:46;;;;;;;7.78;6.60;;;;;;;;;;4954237;28;20064;-76
2023/09/11 08:07:12;;;;;;;8.70;6.50;;;;;;;;;;4958954;28;20035;-78
2023/09/11 08:09:37;;;;;;;9.55;6.82;;;;;;;;;;4953022;28;20054;-78
2023/09/11 08:12:03;;;;;;;9.50;6.72;;;;;;;;;;4965935;28;20030;-77
2023/09/11 08:14:28;;;;;;;7.50;6.35;;;;;;;;;;4972118;28;20134;-77
2023/09/11 08:16:54;;;;;;;9.32;7.20;;;;;;;;;;4944069;28;20039;-78
2023/09/11 08:19:19;;;;;;;8.85;7.32;;;;;;;;;;4952484;28;20031;-76
2023/09/11 08:21:45;;;;;;;7.57;6.65;;;;;;;;;;4935638;28;20073;-76
2023/09/11 08:24:11;;;;;;;8.38;6.00;;;;;;;;;;4935056;28;20430;-78
2023/09/11 08:26:38;;;;;;;6.97;6.22;;;;;;;;;;4935586;28;20126;-78
2023/09/11 08:29:03;;;;;;;8.50;6.18;;;;;;;;;;4939949;28;20062;-78
2023/09/11 08:31:29;;;;;;;7.78;6.40;;;;;;;;;;4960402;28;20039;-78
2023/09/11 08:33:55;;;;;;;8.05;6.72;;;;;;;;;;4938392;28;20552;-78
2023/09/11 08:36:20;;;;;;;7.20;6.50;;;;;;;;;;4945475;28;20031;-77
2023/09/11 08:38:47;;;;;;;8.88;6.28;;;;;;;;;;4944645;28;20027;-78
2023/09/11 08:41:13;;;;;;;7.07;5.45;;;;;;;;;;4946359;28;20476;-77
2023/09/11 08:43:39;;;;;;;8.15;5.63;;;;;;;;;;4954573;28;20111;-77
2023/09/11 08:46:07;;;;;;;7.72;5.68;;;;;;;;;;4949535;28;20035;-77
2023/09/11 08:48:36;;;;;;;7.10;6.20;;;;;;;;;;4939597;28;20080;-77
2023/09/11 08:51:08;;;;;;;10.32;5.93;;;;;;;;;;4940295;28;20468;-77
2023/09/11 08:53:36;;;;;;;7.75;5.88;;;;;;;;;;4941442;28;20105;-77
2023/09/11 08:56:03;;;;;;;5.97;5.38;;;;;;;;;;4959295;28;20050;-77
2023/09/11 08:58:31;;;;;;;6.47;5.80;;;;;;;;;;4953359;28;20599;-77
2023/09/11 09:00:57;;;;;;;6.72;5.35;;;;;;;;;;4956431;28;20276;-78
2023/09/11 09:03:24;;;;;;;8.35;5.80;;;;;;;;;;4942417;28;20051;-78
2023/09/11 09:05:49;;;;;;;8.23;6.10;;;;;;;;;;4961534;28;20049;-76
2023/09/11 09:08:15;;;;;;;8.25;5.53;;;;;;;;;;4949695;28;20039;-76
2023/09/11 09:10:42;;;;;;;7.97;6.03;;;;;;;;;;4961576;28;20073;-77
2023/09/11 09:13:09;;;;;;;7.68;6.13;;;;;;;;;;4962820;28;20484;-77
2023/09/11 09:15:40;;;;;;;5.80;5.20;;;;;;;;;;4956164;28;20126;-77
2023/09/11 09:18:05;;;;;;;6.43;5.63;;;;;;;;;;4955050;28;20424;-76
2023/09/11 09:20:32;;;;;;;6.95;5.50;;;;;;;;;;4950350;28;20045;-77
2023/09/11 09:22:59;;;;;;;7.22;5.50;;;;;;;;;;4952205;28;20031;-76
2023/09/11 09:25:26;;;;;;;12.48;5.57;;;;;;;;;;4954151;28;20039;-77
2023/09/11 09:27:53;;;;;;;5.40;4.93;;;;;;;;;;4955174;28;20078;-76
2023/09/11 09:30:31;;;;;;;6.25;5.65;;;;;;;;;;4954984;28;20105;-77
2023/09/11 09:32:58;;;;;;;8.60;5.60;;;;;;;;;;4951832;28;20104;-77
2023/09/11 09:35:30;;;;;;;8.25;5.45;;;;;;;;;;4955033;28;20038;-77
2023/09/11 09:37:57;;;;;;;6.07;5.47;;;;;;;;;;4955960;28;20046;-77
2023/09/11 09:40:30;;;;;;;8.07;5.35;;;;;;;;;;4936447;28;20142;-77
2023/09/11 09:42:58;;;;;;;6.05;5.43;;;;;;;;;;4937460;28;20573;-77
2023/09/11 09:45:30;;;;;;;6.28;5.15;;;;;;;;;;4954262;28;20065;-77
2023/09/11 09:48:24;;;;;;;5.07;4.60;;;;;;;;;;4954045;28;20019;-77
2023/09/11 09:50:49;;;;;;;;;;;;;;;;;;4930261;28;20412;-77
2023/09/11 09:53:33;;;;;;;6.30;5.10;;;;;;;;;;4948801;28;19926;-77
2023/09/11 09:56:03;;;;;;;6.05;5.10;;;;;;;;;;4954486;28;20059;-78
2023/09/11 09:58:29;;;;;;;6.72;5.07;;;;;;;;;;4952808;28;20028;-77
2023/09/11 10:01:03;;;;;;;8.13;5.20;;;;;;;;;;4947062;28;20129;-77
2023/09/11 10:03:40;;;;;;;7.88;5.20;;;;;;;;;;4938568;28;20046;-78
2023/09/11 10:06:11;;;;;;;11.73;5.40;;;;;;;;;;4933683;28;20445;-77
2023/09/11 10:08:36;;;;;;;14.00;5.38;;;;;;;;;;4956742;28;20200;-77
2023/09/11 10:11:02;;;;;;;9.98;5.00;;;;;;;;;;4946351;28;20142;-77
2023/09/11 10:13:31;;;;;;;6.07;5.22;;;;;;;;;;4956611;28;20062;-77
2023/09/11 10:15:57;;;;;;;7.50;5.25;;;;;;;;;;4951307;28;20086;-77
2023/09/11 10:18:23;;;;;;;9.85;5.15;;;;;;;;;;4951770;28;20051;-77
2023/09/11 10:20:49;;;;;;;10.65;5.22;;;;;;;;;;4941097;28;20027;-77
2023/09/11 10:23:14;;;;;;;9.23;5.00;;;;;;;;;;4953222;28;20039;-77
2023/09/11 10:25:45;;;;;;;8.88;5.30;;;;;;;;;;4941358;28;20108;-77
2023/09/11 10:28:21;;;;;;;8.13;5.13;;;;;;;;;;4953850;28;20035;-77
2023/09/11 10:31:04;;;;;;;7.68;4.97;;;;;;;;;;4950908;28;20043;-77
2023/09/11 10:33:30;;;;;;;10.55;4.97;;;;;;;;;;4950587;28;20065;-77
2023/09/11 10:35:59;;;;;;;5.22;4.30;;;;;;;;;;4958172;28;20034;-76
2023/09/11 10:38:30;;;;;;;6.75;3.92;;;;;;;;;;4937226;28;20092;-77
2023/09/11 10:40:57;;;;;;;5.68;4.50;;;;;;;;;;4953909;28;20043;-77
2023/09/11 10:43:22;;;;;;;6.30;4.45;;;;;;;;;;4946090;28;20531;-77
2023/09/11 10:45:49;;;;;;;8.90;5.13;;;;;;;;;;4952247;28;20101;-77
2023/09/11 10:48:40;;;;;;;4.63;4.22;;;;;;;;;;4928670;28;20019;-76
2023/09/11 10:51:06;;;;;;;6.22;4.40;;;;;;;;;;4951591;28;20051;-77
2023/09/11 10:53:32;;;;;;;4.75;4.32;;;;;;;;;;4949557;28;20054;-77
2023/09/11 10:56:03;;;;;;;5.50;4.25;;;;;;;;;;4957235;28;20489;-77
2023/09/11 10:58:30;;;;;;;4.85;4.32;;;;;;;;;;4950480;28;20081;-77
2023/09/11 11:00:57;;;;;;;4.63;4.00;;;;;;;;;;4942693;28;20031;-77
2023/09/11 11:03:27;;;;;;;5.35;4.65;;;;;;;;;;4949224;28;20027;-78
2023/09/11 11:05:53;;;;;;;7.75;4.00;;;;;;;;;;4946400;28;20027;-77
2023/09/11 11:08:18;;;;;;;9.38;4.32;;;;;;;;;;4948865;28;20058;-77
2023/09/11 11:10:47;;;;;;;4.40;4.00;;;;;;;;;;4950622;28;20093;-77
2023/09/11 11:13:13;;;;;;;5.90;4.18;;;;;;;;;;4952808;28;20050;-77
2023/09/11 11:15:38;;;;;;;4.88;3.63;;;;;;;;;;4946521;28;20039;-77
2023/09/11 11:18:15;;;;;;;4.60;3.80;;;;;;;;;;4946286;28;20031;-76
2023/09/11 11:21:05;;;;;;;5.75;4.03;;;;;;;;;;4955023;28;20031;-77
2023/09/11 11:23:34;;;;;;;3.95;3.55;;;;;;;;;;4954135;28;20038;-77
2023/09/11 11:26:06;;;;;;;3.85;3.55;;;;;;;;;;4951252;28;20065;-77
2023/09/11 11:28:39;;;;;;;4.30;3.90;;;;;;;;;;4950587;28;20061;-77
2023/09/11 11:31:07;;;;;;;6.63;3.78;;;;;;;;;;4933142;28;20058;-77
2023/09/11 11:33:34;;;;;;;9.75;4.18;;;;;;;;;;4926905;28;20058;-77
2023/09/11 11:36:01;;;;;;;7.72;3.97;;;;;;;;;;4948198;28;20031;-78
2023/09/11 11:38:27;;;;;;;9.70;4.40;;;;;;;;;;4948548;28;20035;-76
2023/09/11 11:40:53;;;;;;;6.85;3.85;;;;;;;;;;4951438;28;20031;-77
2023/09/11 11:43:18;;;;;;;7.13;3.55;;;;;;;;;;4953175;28;20523;-79
2023/09/11 11:45:47;;;;;;;7.82;3.80;;;;;;;;;;4944577;28;20501;-77
2023/09/11 11:48:13;;;;;;;6.72;3.65;;;;;;;;;;4947720;28;20019;-77
2023/09/11 11:50:45;;;;;;;4.88;3.42;;;;;;;;;;4947465;28;20037;-76
2023/09/11 11:53:15;;;;;;;8.57;3.60;;;;;;;;;;4946300;28;20084;-77
2023/09/11 11:55:41;;;;;;;6.65;3.92;;;;;;;;;;4952707;28;20573;-77
2023/09/11 11:58:09;;;;;;;9.50;3.92;;;;;;;;;;4949308;28;20031;-76
2023/09/11 12:00:35;;;;;;;4.72;3.67;;;;;;;;;;4933764;28;20050;-76
2023/09/11 12:03:05;;;;;;;4.20;3.80;;;;;;;;;;4940185;28;20157;-77
2023/09/11 12:05:31;;;;;;;4.10;3.80;;;;;;;;;;4954423;28;20043;-76
2023/09/11 12:07:56;;;;;;;3.85;3.25;;;;;;;;;;4959231;28;20051;-77
2023/09/11 12:10:21;;;;;;;4.07;3.67;;;;;;;;;;4947970;28;20444;-77
2023/09/11 12:12:47;;;;;;;5.68;4.15;;;;;;;;;;4952891;28;20044;-77
2023/09/11 12:15:12;;;;;;;8.05;4.05;;;;;;;;;;4954874;28;20026;-78
2023/09/11 12:17:46;;;;;;;5.22;4.22;;;;;;;;;;4934289;28;20046;-76
2023/09/11 12:20:20;;;;;;;4.53;4.13;;;;;;;;;;4954662;28;20043;-79
2023/09/11 12:22:47;;;;;;;5.95;3.88;;;;;;;;;;4955010;28;20031;-77
2023/09/11 12:25:14;;;;;;;9.20;4.43;;;;;;;;;;4952779;28;20046;-77
2023/09/11 12:27:41;;;;;;;5.38;3.95;;;;;;;;;;4949092;28;20123;-77
2023/09/11 12:30:08;;;;;;;4.75;4.13;;;;;;;;;;4934391;28;20092;-76
2023/09/11 12:32:33;;;;;;;9.43;4.50;;;;;;;;;;4953469;28;20027;-76
2023/09/11 12:35:03;;;;;;;7.25;4.22;;;;;;;;;;4949153;28;20080;-77
2023/09/11 12:37:29;;;;;;;6.45;4.10;;;;;;;;;;4949531;28;20394;-76
2023/09/11 12:39:55;;;;;;;4.53;4.10;;;;;;;;;;4949691;28;20192;-77
2023/09/11 12:42:21;;;;;;;16.10;4.30;;;;;;;;;;4947419;28;20023;-77
2023/09/11 12:44:47;;;;;;;4.82;4.00;;;;;;;;;;4961045;28;20173;-76
2023/09/11 12:47:13;;;;;;;5.38;3.80;;;;;;;;;;4951224;28;20386;-77
2023/09/11 12:49:39;;;;;;;5.47;4.07;;;;;;;;;;4958169;28;20567;-76
2023/09/11 12:52:05;;;;;;;4.63;3.90;;;;;;;;;;4958510;28;20178;-77
2023/09/11 12:54:31;;;;;;;4.47;3.85;;;;;;;;;;4961885;28;20121;-76
2023/09/11 12:57:00;;;;;;;6.80;4.15;;;;;;;;;;4954407;28;20290;-77
2023/09/11 12:59:25;;;;;;;4.03;3.67;;;;;;;;;;4953825;28;20130;-77
2023/09/11 13:01:55;;;;;;;5.05;3.75;;;;;;;;;;4954516;28;20512;-77
2023/09/11 13:04:22;;;;;;;5.18;3.47;;;;;;;;;;4954492;28;20683;-77
2023/09/11 13:06:48;;;;;;;4.18;3.70;;;;;;;;;;4940114;28;20397;-77
2023/09/11 13:09:13;;;;;;;4.88;3.80;;;;;;;;;;4958639;28;20035;-77
2023/09/11 13:11:38;;;;;;;5.75;3.50;;;;;;;;;;4959794;28;20027;-77
2023/09/11 13:14:04;;;;;;;5.63;4.10;;;;;;;;;;4952317;28;20040;-77
2023/09/11 13:16:29;;;;;;;3.95;3.53;;;;;;;;;;4955505;28;20031;-76
2023/09/11 13:18:54;;;;;;;4.22;3.70;;;;;;;;;;4956805;28;20058;-77
2023/09/11 13:21:21;;;;;;;6.13;3.88;;;;;;;;;;4956824;28;20024;-77
2023/09/11 13:23:46;;;;;;;8.63;3.63;;;;;;;;;;4946303;28;20036;-77
2023/09/11 13:26:12;;;;;;;15.50;4.13;;;;;;;;;;4949924;28;20035;-77
2023/09/11 13:28:37;;;;;;;6.13;3.60;;;;;;;;;;4956049;28;20046;-77
2023/09/11 13:31:03;;;;;;;5.97;3.70;;;;;;;;;;4954528;28;20132;-77
2023/09/11 13:33:28;;;;;;;4.65;3.45;;;;;;;;;;4954489;28;20055;-77
2023/09/11 13:35:53;;;;;;;6.72;4.00;;;;;;;;;;4951622;28;20035;-77
2023/09/11 13:38:19;;;;;;;5.72;4.00;;;;;;;;;;4953933;28;20047;-76
2023/09/11 13:40:47;;;;;;;6.63;3.90;;;;;;;;;;4956442;28;20457;-77
2023/09/11 13:43:14;;;;;;;12.93;4.57;;;;;;;;;;4950693;28;20039;-77
2023/09/11 13:45:39;;;;;;;4.78;3.60;;;;;;;;;;4948082;28;20107;-77
2023/09/11 13:48:04;;;;;;;6.00;3.83;;;;;;;;;;4950045;28;20039;-76
2023/09/11 13:50:30;;;;;;;7.63;4.00;;;;;;;;;;4954119;28;20340;-77
2023/09/11 13:52:55;;;;;;;9.73;3.90;;;;;;;;;;4952556;28;20126;-76
2023/09/11 13:55:21;;;;;;;4.80;3.70;;;;;;;;;;4956091;28;20035;-76
2023/09/11 13:57:46;;;;;;;6.93;4.32;;;;;;;;;;4950749;28;20454;-76
2023/09/11 14:00:12;;;;;;;4.53;3.60;;;;;;;;;;4963664;28;20548;-76
2023/09/11 14:02:37;;;;;;;9.45;3.50;;;;;;;;;;4956218;28;20027;-76
2023/09/11 14:05:03;;;;;;;7.47;3.90;;;;;;;;;;4950245;28;20035;-77
2023/09/11 14:07:28;;;;;;;5.00;3.53;;;;;;;;;;4952880;28;20039;-77
2023/09/11 14:09:54;;;;;;;7.50;3.55;;;;;;;;;;4946874;28;20050;-77
2023/09/11 14:12:19;;;;;;;7.30;3.97;;;;;;;;;;4950428;28;20861;-77
2023/09/11 14:14:44;;;;;;;9.95;4.22;;;;;;;;;;4950083;28;20027;-77
2023/09/11 14:17:10;;;;;;;6.30;3.85;;;;;;;;;;4946821;28;20409;-77
2023/09/11 14:19:35;;;;;;;4.18;3.78;;;;;;;;;;4941032;28;20042;-77
2023/09/11 14:22:00;;;;;;;10.40;3.95;;;;;;;;;;4958156;28;20628;-77
2023/09/11 14:24:25;;;;;;;4.13;3.75;;;;;;;;;;4957833;28;20031;-78
2023/09/11 14:26:51;;;;;;;5.90;4.07;;;;;;;;;;4950432;28;20030;-76
2023/09/11 14:29:16;;;;;;;6.05;3.85;;;;;;;;;;4953308;28;20035;-77